.
WxDataArchive / Data Records for 2011-10-02
2011-10-01 October 2011 2011-10-03

Data Records for Sunday, 02 October 2011

Time	Temp	Chill	HIndex	Humid	Dewpt	 Wind 	HiWind	WindDir	Rain 	Barom 
-----	----	-----	------	-----	-----	------	------	-------	-----	----- 
00:00	41.3	41.3	41.3	85	37.1	0	0	---	0.00	30.215 
00:05	41.2	41.2	41.2	85	37.0	0	0	---	0.00	30.215 
00:10	40.9	40.9	40.9	85	36.7	0	0	---	0.00	30.215 
00:15	40.8	40.8	40.8	85	36.6	0	0	---	0.00	30.217 
00:20	40.6	40.6	40.6	86	36.7	0	0	---	0.00	30.217 
00:25	40.3	40.3	40.3	86	36.5	0	0	---	0.00	30.217 
00:30	40.1	40.1	40.1	86	36.3	0	0	---	0.00	30.217 
00:35	39.9	39.9	39.9	87	36.4	0	0	---	0.00	30.217 
00:40	39.6	39.6	39.6	87	36.1	0	0	---	0.00	30.217 
00:45	39.5	39.5	39.5	87	36.0	0	0	---	0.00	30.220 
00:50	39.2	39.2	39.2	87	35.7	0	0	---	0.00	30.220 
00:55	39.1	39.1	39.1	88	35.9	0	0	---	0.00	30.220 
01:00	38.9	38.9	38.9	88	35.7	0	0	---	0.00	30.222 
01:05	38.6	38.6	38.6	88	35.4	0	0	---	0.00	30.222 
01:10	38.5	38.5	38.5	88	35.3	0	0	---	0.00	30.222 
01:15	38.3	38.3	38.3	88	35.1	0	0	---	0.00	30.220 
01:20	38.0	38.0	38.0	89	35.1	0	0	---	0.00	30.220 
01:25	37.9	37.9	37.9	89	35.0	0	0	---	0.00	30.220 
01:30	37.8	37.8	37.8	90	35.1	0	0	---	0.00	30.220 
01:35	37.8	37.8	37.8	90	35.1	0	0	---	0.00	30.220 
01:40	37.8	37.8	37.8	90	35.1	0	0	---	0.00	30.220 
01:45	37.8	37.8	37.8	90	35.1	0	0	---	0.00	30.220 
01:50	37.6	37.6	37.6	91	35.2	0	0	---	0.00	30.220 
01:55	37.5	37.5	37.5	91	35.1	0	0	---	0.00	30.220 
02:00	37.6	37.6	37.6	91	35.2	0	0	---	0.00	30.218 
02:05	37.6	37.6	37.6	91	35.2	0	0	---	0.00	30.218 
02:10	37.8	37.8	37.8	91	35.4	0	0	---	0.00	30.218 
02:15	37.6	37.6	37.6	91	35.2	0	0	---	0.00	30.206 
02:20	37.5	37.5	37.5	91	35.1	0	0	---	0.00	30.206 
02:25	37.5	37.5	37.5	92	35.4	0	0	---	0.00	30.206 
02:30	37.5	37.5	37.5	92	35.4	0	0	---	0.00	30.205 
02:35	37.5	37.5	37.5	92	35.4	0	0	---	0.00	30.205 
02:40	37.6	37.6	37.6	92	35.5	0	0	---	0.00	30.205 
02:45	37.8	37.8	37.8	92	35.7	0	0	---	0.00	30.204 
02:50	37.8	37.8	37.8	92	35.7	0	0	---	0.00	30.204 
02:55	37.8	37.8	37.8	92	35.7	0	0	---	0.00	30.204 
03:00	37.8	37.8	37.8	92	35.7	0	0	---	0.00	30.203 
03:05	37.9	37.9	37.9	93	36.1	0	0	---	0.00	30.203 
03:10	38.0	38.0	38.0	93	36.2	0	0	---	0.00	30.203 
03:15	38.2	38.2	38.2	93	36.4	0	0	---	0.00	30.201 
03:20	38.2	38.2	38.2	93	36.4	0	0	---	0.00	30.201 
03:25	38.2	38.2	38.2	93	36.4	0	0	---	0.00	30.201 
03:30	38.2	38.2	38.2	93	36.4	0	1	90	0.00	30.201 
03:35	38.2	38.2	38.2	93	36.4	0	0	---	0.00	30.201 
03:40	38.2	38.2	38.2	93	36.4	0	0	---	0.00	30.201 
03:45	38.2	38.2	38.2	93	36.4	0	1	90	0.00	30.192 
03:50	38.0	38.0	38.0	93	36.2	0	0	---	0.00	30.192 
03:55	38.0	38.0	38.0	93	36.2	0	0	---	0.00	30.192 
04:00	38.0	38.0	38.0	93	36.2	0	0	---	0.00	30.193 
04:05	38.0	38.0	38.0	93	36.2	0	0	---	0.00	30.193 
04:10	37.9	37.9	37.9	93	36.1	0	0	---	0.00	30.193 
04:15	37.9	37.9	37.9	93	36.1	0	1	90	0.00	30.194 
04:20	37.9	37.9	37.9	93	36.1	0	0	---	0.00	30.194 
04:25	37.9	37.9	37.9	93	36.1	0	1	90	0.00	30.194 
04:30	38.0	38.0	38.0	93	36.2	0	0	---	0.00	30.195 
04:35	38.0	38.0	38.0	93	36.2	0	0	---	0.00	30.195 
04:40	37.9	37.9	37.9	93	36.1	0	0	---	0.00	30.195 
04:45	38.0	38.0	38.0	93	36.2	0	0	---	0.00	30.200 
04:50	37.9	37.9	37.9	92	35.8	0	0	---	0.00	30.200 
04:55	37.9	37.9	37.9	92	35.8	0	0	---	0.00	30.200 
05:00	37.9	37.9	37.9	92	35.8	0	0	---	0.00	30.197 
05:05	37.8	37.8	37.8	92	35.7	0	0	---	0.00	30.197 
05:10	37.8	37.8	37.8	92	35.7	0	1	90	0.00	30.197 
05:15	37.8	37.8	37.8	92	35.7	0	0	---	0.00	30.199 
05:20	37.9	37.9	37.9	92	35.8	0	0	---	0.00	30.199 
05:25	37.9	37.9	37.9	92	35.8	0	0	---	0.00	30.199 
05:30	37.9	37.9	37.9	92	35.8	0	0	---	0.00	30.197 
05:35	37.9	37.9	37.9	92	35.8	0	0	---	0.00	30.197 
05:40	37.9	37.9	37.9	92	35.8	0	0	---	0.00	30.197 
05:45	37.8	37.8	37.8	92	35.7	0	0	---	0.00	30.193 
05:50	37.8	37.8	37.8	92	35.7	0	0	---	0.00	30.193 
05:55	37.6	37.6	37.6	92	35.5	0	0	---	0.00	30.193 
06:00	37.6	37.6	37.6	92	35.5	0	0	---	0.00	30.198 
06:05	37.6	37.6	37.6	91	35.2	0	0	---	0.00	30.198 
06:10	37.6	37.6	37.6	91	35.2	0	0	---	0.00	30.198 
06:15	37.6	37.6	37.6	91	35.2	0	0	---	0.00	30.200 
06:20	37.6	37.6	37.6	91	35.2	0	0	---	0.00	30.200 
06:25	37.6	37.6	37.6	91	35.2	0	1	90	0.00	30.200 
06:30	37.8	37.8	37.8	91	35.4	0	0	---	0.00	30.191 
06:35	37.8	37.8	37.8	91	35.4	0	0	---	0.00	30.191 
06:40	37.8	37.8	37.8	91	35.4	0	0	---	0.00	30.191 
06:45	37.8	37.8	37.8	91	35.4	0	0	---	0.00	30.195 
06:50	37.6	37.6	37.6	91	35.2	0	0	---	0.00	30.195 
06:55	37.6	37.6	37.6	91	35.2	0	0	---	0.00	30.195 
07:00	37.5	37.5	37.5	91	35.1	0	0	---	0.00	30.203 
07:05	37.5	37.5	37.5	91	35.1	0	0	---	0.00	30.203 
07:10	37.3	37.3	37.3	91	34.9	0	0	---	0.00	30.203 
07:15	37.3	37.3	37.3	91	34.9	0	0	---	0.00	30.205 
07:20	37.3	37.3	37.3	91	34.9	0	0	---	0.00	30.205 
07:25	37.2	37.2	37.2	91	34.8	0	0	---	0.00	30.205 
07:30	37.2	37.2	37.2	91	34.8	0	0	---	0.00	30.205 
07:35	37.2	37.2	37.2	91	34.8	0	0	---	0.00	30.205 
07:40	37.2	37.2	37.2	91	34.8	0	0	---	0.00	30.205 
07:45	37.2	37.2	37.2	91	34.8	0	0	---	0.00	30.208 
07:50	37.3	37.3	37.3	91	34.9	0	0	---	0.00	30.208 
07:55	37.3	37.3	37.3	91	34.9	0	0	---	0.00	30.208 
08:00	37.5	37.5	37.5	91	35.1	0	1	90	0.00	30.210 
08:05	37.6	37.6	37.6	91	35.2	0	2	90	0.00	30.210 
08:10	37.8	37.8	37.8	91	35.4	0	2	90	0.00	30.210 
08:15	37.9	37.9	37.9	91	35.5	0	1	90	0.00	30.214 
08:20	38.0	38.0	38.0	91	35.6	0	2	90	0.00	30.214 
08:25	38.3	38.3	38.3	91	35.9	0	3	90	0.00	30.214 
08:30	38.6	38.6	38.6	91	36.2	0	3	90	0.00	30.222 
08:35	39.1	39.1	39.1	91	36.7	1	3	270	0.00	30.222 
08:40	39.5	39.5	39.5	90	36.8	1	3	270	0.00	30.222 
08:45	39.9	39.9	39.9	90	37.2	0	2	270	0.00	30.212 
08:50	40.3	40.3	40.3	89	37.3	1	3	270	0.00	30.212 
08:55	40.8	40.8	40.8	88	37.5	0	1	270	0.00	30.212 
09:00	41.2	41.2	41.2	87	37.6	1	3	270	0.00	30.206 
09:05	41.6	41.6	41.6	86	37.7	1	3	270	0.00	30.206 
09:10	41.9	41.9	41.9	85	37.7	1	3	270	0.00	30.206 
09:15	42.3	42.3	42.3	84	37.8	1	3	270	0.00	30.211 
09:20	42.8	42.8	42.8	82	37.7	1	3	315	0.00	30.211 
09:25	43.2	43.2	43.2	81	37.8	1	4	292	0.00	30.211 
09:30	43.6	43.6	43.6	79	37.5	1	5	292	0.00	30.213 
09:35	44.1	44.1	44.1	78	37.7	1	4	292	0.00	30.213 
09:40	44.5	44.5	44.5	77	37.7	1	4	292	0.00	30.213 
09:45	44.8	44.8	44.8	74	37.0	1	4	292	0.00	30.211 
09:50	45.2	45.2	45.2	74	37.4	0	2	292	0.00	30.211 
09:55	45.7	45.7	45.7	72	37.2	1	2	292	0.00	30.211 
10:00	46.1	46.1	46.1	71	37.2	1	3	292	0.00	30.208 
10:05	46.7	46.7	46.7	69	37.1	1	4	292	0.00	30.208 
10:10	46.8	46.8	46.8	69	37.2	1	6	315	0.00	30.208 
10:15	47.6	47.6	47.6	69	37.9	0	3	315	0.00	30.208 
10:20	48.0	48.0	48.0	68	37.9	0	2	315	0.00	30.208 
10:25	48.6	48.6	48.6	68	38.5	1	5	315	0.00	30.208 
10:30	48.9	48.9	48.9	66	38.0	0	3	315	0.00	30.206 
10:35	49.2	49.2	49.2	65	37.9	2	3	315	0.00	30.206 
10:40	49.6	49.6	49.6	65	38.3	1	4	292	0.00	30.206 
10:45	50.1	50.1	50.1	63	38.0	2	6	292	0.00	30.205 
10:50	50.1	50.1	50.1	61	37.2	3	6	315	0.00	30.205 
10:55	50.5	50.5	50.5	63	38.4	1	3	315	0.00	30.205 
11:00	51.0	51.0	51.0	61	38.0	2	5	292	0.00	30.202 
11:05	51.3	51.3	51.3	59	37.5	2	6	315	0.00	30.202 
11:10	51.6	51.6	51.6	59	37.7	2	5	270	0.00	30.202 
11:15	52.0	52.0	52.0	58	37.7	2	7	270	0.00	30.200 
11:20	52.3	52.3	52.3	59	38.4	2	5	292	0.00	30.200 
11:25	52.3	52.3	52.3	57	37.5	3	6	292	0.00	30.200 
11:30	52.5	52.5	52.5	56	37.3	3	6	270	0.00	30.200 
11:35	53.1	53.1	53.1	55	37.4	2	5	315	0.00	30.200 
11:40	53.5	53.5	53.5	53	36.8	2	7	292	0.00	30.200 
11:45	53.8	53.8	53.8	51	36.1	2	6	292	0.00	30.196 
11:50	54.1	54.1	54.1	52	36.9	1	6	270	0.00	30.196 
11:55	54.5	54.5	54.5	50	36.2	2	6	270	0.00	30.196 
12:00	54.8	54.8	54.8	47	35.0	2	6	292	0.00	30.186 
12:05	55.1	55.1	55.1	47	35.2	2	4	292	0.00	30.186 
12:10	55.4	55.4	55.4	47	35.5	2	4	270	0.00	30.186 
12:15	55.9	55.9	55.9	46	35.4	1	3	315	0.00	30.185 
12:20	56.0	56.0	56.0	46	35.5	1	5	315	0.00	30.185 
12:25	56.0	56.0	56.0	43	33.8	1	4	292	0.00	30.185 
12:30	55.9	55.9	55.9	42	33.1	1	6	270	0.00	30.181 
12:35	56.2	56.2	56.2	45	35.1	1	3	0	0.00	30.181 
12:40	56.3	56.3	56.3	42	33.5	1	7	270	0.00	30.181 
12:45	56.5	56.5	56.5	43	34.3	1	4	292	0.00	30.176 
12:50	56.5	56.5	56.5	42	33.7	2	6	315	0.00	30.176 
12:55	56.5	56.5	56.5	42	33.7	1	4	315	0.00	30.176 
13:00	56.3	56.3	56.3	42	33.5	1	4	292	0.00	30.170 
13:05	56.2	56.2	56.2	41	32.8	1	4	315	0.00	30.170 
13:10	56.3	56.3	56.3	41	32.9	1	4	292	0.00	30.170 
13:15	56.0	56.0	56.0	41	32.6	2	5	315	0.00	30.170 
13:20	56.2	56.2	56.2	41	32.8	1	5	292	0.00	30.170 
13:25	56.5	56.5	56.5	41	33.1	1	4	292	0.00	30.170 
13:30	56.7	56.7	56.7	41	33.3	2	6	270	0.00	30.164 
13:35	57.3	57.3	57.3	39	32.6	2	5	270	0.00	30.164 
13:40	57.8	57.8	57.8	40	33.6	3	5	292	0.00	30.164 
13:45	58.1	58.1	58.1	40	33.9	2	4	292	0.00	30.153 
13:50	58.6	58.6	58.6	40	34.4	1	4	338	0.00	30.153 
13:55	58.4	58.4	58.4	38	32.9	2	4	315	0.00	30.153 
14:00	58.7	58.7	58.7	40	34.4	1	4	270	0.00	30.149 
14:05	58.9	58.9	58.9	37	32.7	1	7	270	0.00	30.149 
14:10	58.6	58.6	58.6	37	32.4	1	4	292	0.00	30.149 
14:15	58.7	58.7	58.7	35	31.1	2	7	292	0.00	30.143 
14:20	58.9	58.9	58.9	35	31.3	2	4	270	0.00	30.143 
14:25	59.2	59.2	59.2	35	31.6	3	5	270	0.00	30.143 
14:30	59.5	59.5	59.5	36	32.5	1	5	315	0.00	30.129 
14:35	59.3	59.3	59.3	36	32.4	2	6	315	0.00	30.129 
14:40	59.6	59.6	59.6	36	32.6	2	6	270	0.00	30.129 
14:45	59.6	59.6	59.6	32	29.7	2	6	292	0.00	30.127 
14:50	59.8	59.8	59.8	32	29.9	2	5	292	0.00	30.127 
14:55	59.9	59.9	59.9	33	30.7	2	5	315	0.00	30.127 
15:00	60.4	60.4	60.4	31	29.6	2	5	292	0.00	30.119 
15:05	60.5	60.5	60.5	34	32.0	2	4	270	0.00	30.119 
15:10	60.7	60.7	60.7	30	29.1	3	9	292	0.00	30.119 
15:15	60.7	60.7	60.7	31	29.9	2	9	292	0.00	30.115 
15:20	61.2	61.2	61.2	30	29.5	1	4	270	0.00	30.115 
15:25	61.3	61.3	61.3	28	27.9	2	6	292	0.00	30.115 
15:30	61.3	61.3	61.3	31	30.4	1	4	292	0.00	30.107 
15:35	61.5	61.5	61.5	31	30.6	1	5	292	0.00	30.107 
15:40	61.5	61.5	61.5	28	28.1	2	5	292	0.00	30.107 
15:45	61.5	61.5	61.5	29	29.0	2	4	315	0.00	30.100 
15:50	61.5	61.5	61.5	29	29.0	2	7	315	0.00	30.100 
15:55	61.3	61.3	61.3	28	27.9	2	5	270	0.00	30.100 
16:00	61.5	61.5	61.5	27	27.2	2	7	292	0.00	30.093 
16:05	61.5	61.5	61.5	28	28.1	3	6	292	0.00	30.093 
16:10	61.5	61.5	61.5	29	29.0	2	8	270	0.00	30.093 
16:15	61.5	61.5	61.5	28	28.1	1	5	315	0.00	30.088 
16:20	61.5	61.5	61.5	32	31.4	2	6	292	0.00	30.088 
16:25	61.5	61.5	61.5	29	29.0	2	5	292	0.00	30.088 
16:30	61.5	61.5	61.5	28	28.1	2	5	292	0.00	30.085 
16:35	61.6	61.6	61.6	29	29.0	2	6	292	0.00	30.085 
16:40	61.3	61.3	61.3	30	29.6	2	7	292	0.00	30.085 
16:45	61.5	61.5	61.5	30	29.8	2	6	292	0.00	30.082 
16:50	61.5	61.5	61.5	29	29.0	2	5	292	0.00	30.082 
16:55	61.3	61.3	61.3	30	29.6	1	4	315	0.00	30.082 
17:00	61.3	61.3	61.3	29	28.8	3	7	270	0.00	30.084 
17:05	61.2	61.2	61.2	31	30.3	1	7	315	0.00	30.084 
17:10	61.5	61.5	61.5	31	30.6	1	4	338	0.00	30.084 
17:15	61.5	61.5	61.5	30	29.8	2	6	315	0.00	30.078 
17:20	61.5	61.5	61.5	29	29.0	3	7	292	0.00	30.078 
17:25	61.3	61.3	61.3	31	30.4	2	6	292	0.00	30.078 
17:30	61.3	61.3	61.3	32	31.2	2	6	292	0.00	30.083 
17:35	61.5	61.5	61.5	33	32.1	1	6	292	0.00	30.083 
17:40	61.3	61.3	61.3	33	32.0	2	5	270	0.00	30.083 
17:45	61.3	61.3	61.3	32	31.2	2	6	270	0.00	30.087 
17:50	61.2	61.2	61.2	34	32.6	2	6	270	0.00	30.087 
17:55	61.2	61.2	61.2	34	32.6	1	4	292	0.00	30.087 
18:00	61.0	61.0	61.0	35	33.2	1	3	292	0.00	30.087 
18:05	60.9	60.9	60.9	34	32.3	2	7	315	0.00	30.087 
18:10	60.7	60.7	60.7	33	31.4	2	7	270	0.00	30.087 
18:15	60.4	60.4	60.4	36	33.3	1	4	338	0.00	30.089 
18:20	60.1	60.1	60.1	36	33.1	0	2	315	0.00	30.089 
18:25	59.9	59.9	59.9	37	33.6	0	1	315	0.00	30.089 
18:30	59.5	59.5	59.5	39	34.5	0	1	315	0.00	30.092 
18:35	59.0	59.0	59.0	39	34.1	0	0	---	0.00	30.092 
18:40	58.6	58.6	58.6	40	34.4	0	1	315	0.00	30.092 
18:45	58.1	58.1	58.1	40	33.9	0	1	315	0.00	30.095 
18:50	58.0	58.0	58.0	43	35.6	1	4	315	0.00	30.095 
18:55	57.6	57.6	57.6	46	37.0	1	4	292	0.00	30.095 
19:00	57.6	57.6	57.6	48	38.1	1	4	292	0.00	30.103 
19:05	57.5	57.5	57.5	49	38.5	1	3	292	0.00	30.103 
19:10	57.2	57.2	57.2	49	38.2	1	3	292	0.00	30.103 
19:15	56.9	56.9	56.9	49	37.9	2	4	315	0.00	30.106 
19:20	56.7	56.7	56.7	49	37.8	2	6	315	0.00	30.106 
19:25	56.5	56.5	56.5	47	36.5	2	5	315	0.00	30.106 
19:30	56.2	56.2	56.2	47	36.2	2	6	270	0.00	30.101 
19:35	55.9	55.9	55.9	47	36.0	1	4	315	0.00	30.101 
19:40	55.6	55.6	55.6	47	35.7	1	3	315	0.00	30.101 
19:45	55.3	55.3	55.3	48	35.9	1	2	315	0.00	30.104 
19:50	55.0	55.0	55.0	49	36.2	0	2	315	0.00	30.104 
19:55	54.7	54.7	54.7	50	36.4	1	2	315	0.00	30.104 
20:00	54.5	54.5	54.5	50	36.2	1	4	315	0.00	30.107 
20:05	54.2	54.2	54.2	51	36.5	1	5	292	0.00	30.107 
20:10	54.1	54.1	54.1	52	36.9	1	3	292	0.00	30.107 
20:15	53.8	53.8	53.8	52	36.6	0	3	270	0.00	30.106 
20:20	53.5	53.5	53.5	54	37.3	1	4	292	0.00	30.106 
20:25	53.3	53.3	53.3	54	37.1	1	4	338	0.00	30.106 
20:30	53.1	53.1	53.1	55	37.4	1	4	292	0.00	30.106 
20:35	52.8	52.8	52.8	56	37.5	1	3	270	0.00	30.106 
20:40	52.6	52.6	52.6	57	37.8	2	4	292	0.00	30.106 
20:45	52.5	52.5	52.5	57	37.7	1	5	292	0.00	30.101 
20:50	52.3	52.3	52.3	57	37.5	1	4	315	0.00	30.101 
20:55	52.3	52.3	52.3	57	37.5	2	6	315	0.00	30.101 
21:00	52.2	52.2	52.2	58	37.9	1	4	270	0.00	30.105 
21:05	52.0	52.0	52.0	58	37.7	1	3	292	0.00	30.105 
21:10	51.9	51.9	51.9	59	38.0	0	2	0	0.00	30.105 
21:15	51.7	51.7	51.7	59	37.8	0	2	0	0.00	30.107 
21:20	51.6	51.6	51.6	60	38.2	1	3	270	0.00	30.107 
21:25	51.3	51.3	51.3	61	38.3	0	4	270	0.00	30.107 
21:30	51.1	51.1	51.1	62	38.5	0	2	270	0.00	30.119 
21:35	50.8	50.8	50.8	62	38.3	0	2	270	0.00	30.119 
21:40	50.7	50.7	50.7	63	38.6	0	2	270	0.00	30.119 
21:45	50.5	50.5	50.5	64	38.8	0	1	270	0.00	30.128 
21:50	50.2	50.2	50.2	65	38.9	0	2	270	0.00	30.128 
21:55	50.1	50.1	50.1	65	38.8	0	1	270	0.00	30.128 
22:00	49.9	49.9	49.9	65	38.6	0	1	270	0.00	30.127 
22:05	49.8	49.8	49.8	66	38.9	0	1	270	0.00	30.127 
22:10	49.6	49.6	49.6	66	38.7	0	1	270	0.00	30.127 
22:15	49.5	49.5	49.5	67	39.0	0	1	270	0.00	30.130 
22:20	49.2	49.2	49.2	67	38.7	0	0	---	0.00	30.130 
22:25	49.1	49.1	49.1	68	39.0	0	1	270	0.00	30.130 
22:30	48.9	48.9	48.9	68	38.8	0	1	270	0.00	30.122 
22:35	48.8	48.8	48.8	69	39.1	0	1	270	0.00	30.122 
22:40	48.6	48.6	48.6	69	38.9	0	1	270	0.00	30.122 
22:45	48.5	48.5	48.5	69	38.8	0	1	270	0.00	30.124 
22:50	48.5	48.5	48.5	69	38.8	0	1	270	0.00	30.124 
22:55	48.3	48.3	48.3	69	38.6	0	1	270	0.00	30.124 
23:00	48.2	48.2	48.2	69	38.5	0	1	270	0.00	30.121 
23:05	48.0	48.0	48.0	70	38.7	0	1	270	0.00	30.121 
23:10	47.9	47.9	47.9	70	38.6	0	1	270	0.00	30.121 
23:15	47.9	47.9	47.9	70	38.6	0	1	270	0.00	30.115 
23:20	47.7	47.7	47.7	70	38.4	0	1	270	0.00	30.115 
23:25	47.7	47.7	47.7	70	38.4	0	1	270	0.00	30.115 
23:30	47.7	47.7	47.7	70	38.4	0	1	270	0.00	30.115 
23:35	47.7	47.7	47.7	70	38.4	0	1	270	0.00	30.115 
23:40	47.6	47.6	47.6	70	38.3	0	1	270	0.00	30.115 
23:45	47.6	47.6	47.6	70	38.3	0	1	270	0.00	30.121 
23:50	47.4	47.4	47.4	70	38.1	0	1	270	0.00	30.121 
23:55	47.3	47.3	47.3	70	38.0	0	1	270	0.00	30.121 

CoCoRaHS
IN-AL-39
A2 Web Hosting
Creative Commons License
GoDaddy
search engine by freefind advanced

loaded 2018-11-12 19:17:33 • last modified 2010-11-18 10:43:29
Privacy PolicyDisclaimer
• wx.awcolley.com is powered by PmWiki v.2002016 •
• all content (unless otherwise noted) © 2018 A W Colley